sensor_id;sensor_type;location;lat;lon;timestamp;temperature;humidity
16625;DHT22;8426;48.496;9.098;2024-01-15T00:04:58;-2.60;99.90
16625;DHT22;8426;48.496;9.098;2024-01-15T00:10:05;-2.60;99.90
16625;DHT22;8426;48.496;9.098;2024-01-15T00:15:09;-2.70;99.90
16625;DHT22;8426;48.496;9.098;2024-01-15T00:20:13;-2.70;99.90
16625;DHT22;8426;48.496;9.098;2024-01-15T00:25:19;-2.70;99.90
16625;DHT22;8426;48.496;9.098;2024-01-15T00:30:23;-2.70;99.90
16625;DHT22;8426;48.496;9.098;2024-01-15T00:35:27;-2.60;99.90
16625;DHT22;8426;48.496;9.098;2024-01-15T00:40:32;-2.40;99.90
16625;DHT22;8426;48.496;9.098;2024-01-15T00:45:36;-2.30;99.90
16625;DHT22;8426;48.496;9.098;2024-01-15T00:50:39;-2.30;99.90
16625;DHT22;8426;48.496;9.098;2024-01-15T00:55:44;-2.20;99.90
16625;DHT22;8426;48.496;9.098;2024-01-15T01:00:48;-2.10;99.90
16625;DHT22;8426;48.496;9.098;2024-01-15T01:05:52;-2.00;99.90
16625;DHT22;8426;48.496;9.098;2024-01-15T01:10:58;-2.00;99.90
16625;DHT22;8426;48.496;9.098;2024-01-15T01:16:02;-2.10;99.90
16625;DHT22;8426;48.496;9.098;2024-01-15T01:21:06;-2.10;99.90
16625;DHT22;8426;48.496;9.098;2024-01-15T01:26:14;-2.10;99.90
16625;DHT22;8426;48.496;9.098;2024-01-15T01:31:18;-2.10;99.90
16625;DHT22;8426;48.496;9.098;2024-01-15T01:36:22;-2.10;99.90
16625;DHT22;8426;48.496;9.098;2024-01-15T01:41:27;-2.00;99.90
16625;DHT22;8426;48.496;9.098;2024-01-15T01:46:31;-2.00;99.90
16625;DHT22;8426;48.496;9.098;2024-01-15T01:51:38;-2.10;99.90
16625;DHT22;8426;48.496;9.098;2024-01-15T01:56:43;-2.00;99.90
16625;DHT22;8426;48.496;9.098;2024-01-15T02:01:48;-2.10;99.90
16625;DHT22;8426;48.496;9.098;2024-01-15T02:06:53;-2.00;99.90
16625;DHT22;8426;48.496;9.098;2024-01-15T02:11:58;-2.00;99.90
16625;DHT22;8426;48.496;9.098;2024-01-15T02:17:02;-2.00;99.90
16625;DHT22;8426;48.496;9.098;2024-01-15T02:22:07;-2.00;99.90
16625;DHT22;8426;48.496;9.098;2024-01-15T02:27:12;-1.90;99.90
16625;DHT22;8426;48.496;9.098;2024-01-15T02:32:16;-2.00;99.90
16625;DHT22;8426;48.496;9.098;2024-01-15T02:37:20;-2.00;99.90
16625;DHT22;8426;48.496;9.098;2024-01-15T02:42:26;-2.00;99.90
16625;DHT22;8426;48.496;9.098;2024-01-15T02:47:30;-2.20;99.90
16625;DHT22;8426;48.496;9.098;2024-01-15T02:52:33;-2.30;99.90
16625;DHT22;8426;48.496;9.098;2024-01-15T02:57:39;-2.40;99.90
16625;DHT22;8426;48.496;9.098;2024-01-15T03:02:45;-2.30;99.90
16625;DHT22;8426;48.496;9.098;2024-01-15T03:07:50;-2.30;99.90
16625;DHT22;8426;48.496;9.098;2024-01-15T03:12:59;-2.30;99.90
16625;DHT22;8426;48.496;9.098;2024-01-15T03:18:02;-2.20;99.90
16625;DHT22;8426;48.496;9.098;2024-01-15T03:23:08;-2.10;99.90
16625;DHT22;8426;48.496;9.098;2024-01-15T03:28:14;-2.10;99.90
16625;DHT22;8426;48.496;9.098;2024-01-15T03:33:18;-2.00;99.90
16625;DHT22;8426;48.496;9.098;2024-01-15T03:38:23;-1.70;99.90
16625;DHT22;8426;48.496;9.098;2024-01-15T03:43:28;-1.70;99.90
16625;DHT22;8426;48.496;9.098;2024-01-15T03:48:32;-1.50;99.90
16625;DHT22;8426;48.496;9.098;2024-01-15T03:53:43;-1.60;99.90
16625;DHT22;8426;48.496;9.098;2024-01-15T03:58:48;-1.60;99.90
16625;DHT22;8426;48.496;9.098;2024-01-15T04:03:52;-1.60;99.90
16625;DHT22;8426;48.496;9.098;2024-01-15T04:09:03;-1.60;99.90
16625;DHT22;8426;48.496;9.098;2024-01-15T04:14:10;-1.70;99.90
16625;DHT22;8426;48.496;9.098;2024-01-15T04:19:14;-1.70;99.90
16625;DHT22;8426;48.496;9.098;2024-01-15T04:24:18;-1.70;99.90
16625;DHT22;8426;48.496;9.098;2024-01-15T04:29:23;-1.70;99.90
16625;DHT22;8426;48.496;9.098;2024-01-15T04:34:26;-1.70;99.90
16625;DHT22;8426;48.496;9.098;2024-01-15T04:39:30;-1.70;99.90
16625;DHT22;8426;48.496;9.098;2024-01-15T04:44:35;-1.70;99.90
16625;DHT22;8426;48.496;9.098;2024-01-15T04:49:48;-1.70;99.90
16625;DHT22;8426;48.496;9.098;2024-01-15T04:54:52;-1.70;99.90
16625;DHT22;8426;48.496;9.098;2024-01-15T04:59:57;-1.60;99.90
16625;DHT22;8426;48.496;9.098;2024-01-15T05:05:02;-1.60;99.90
16625;DHT22;8426;48.496;9.098;2024-01-15T05:10:11;-1.50;99.90
16625;DHT22;8426;48.496;9.098;2024-01-15T05:15:16;-1.50;99.90
16625;DHT22;8426;48.496;9.098;2024-01-15T05:20:22;-1.60;99.90
16625;DHT22;8426;48.496;9.098;2024-01-15T05:25:26;-1.60;99.90
16625;DHT22;8426;48.496;9.098;2024-01-15T05:30:31;-1.60;99.90
16625;DHT22;8426;48.496;9.098;2024-01-15T05:35:43;-1.60;99.90
16625;DHT22;8426;48.496;9.098;2024-01-15T05:40:48;-1.60;99.90
16625;DHT22;8426;48.496;9.098;2024-01-15T05:45:54;-1.60;99.90
16625;DHT22;8426;48.496;9.098;2024-01-15T05:50:59;-1.60;99.90
16625;DHT22;8426;48.496;9.098;2024-01-15T05:56:05;-1.70;99.90
16625;DHT22;8426;48.496;9.098;2024-01-15T06:01:11;-1.60;99.90
16625;DHT22;8426;48.496;9.098;2024-01-15T06:06:15;-1.60;99.90
16625;DHT22;8426;48.496;9.098;2024-01-15T06:11:20;-1.60;99.90
16625;DHT22;8426;48.496;9.098;2024-01-15T06:16:26;-1.60;99.90
16625;DHT22;8426;48.496;9.098;2024-01-15T06:21:36;-1.60;99.90
16625;DHT22;8426;48.496;9.098;2024-01-15T06:26:43;-1.50;99.90
16625;DHT22;8426;48.496;9.098;2024-01-15T06:31:52;-1.60;99.90
16625;DHT22;8426;48.496;9.098;2024-01-15T06:36:57;-1.60;99.90
16625;DHT22;8426;48.496;9.098;2024-01-15T06:42:01;-1.60;99.90
16625;DHT22;8426;48.496;9.098;2024-01-15T06:47:07;-1.50;99.90
16625;DHT22;8426;48.496;9.098;2024-01-15T06:52:10;-1.60;99.90
16625;DHT22;8426;48.496;9.098;2024-01-15T06:57:15;-1.50;99.90
16625;DHT22;8426;48.496;9.098;2024-01-15T07:02:20;-1.50;99.90
16625;DHT22;8426;48.496;9.098;2024-01-15T07:07:24;-1.50;99.90
16625;DHT22;8426;48.496;9.098;2024-01-15T07:12:31;-1.40;99.90
16625;DHT22;8426;48.496;9.098;2024-01-15T07:17:36;-1.50;99.90
16625;DHT22;8426;48.496;9.098;2024-01-15T07:22:41;-1.50;99.90
16625;DHT22;8426;48.496;9.098;2024-01-15T07:27:45;-1.30;99.90
16625;DHT22;8426;48.496;9.098;2024-01-15T07:32:51;-1.30;99.90
16625;DHT22;8426;48.496;9.098;2024-01-15T07:37:55;-1.30;99.90
16625;DHT22;8426;48.496;9.098;2024-01-15T07:42:59;-1.30;99.90
16625;DHT22;8426;48.496;9.098;2024-01-15T07:48:05;-1.30;99.90
16625;DHT22;8426;48.496;9.098;2024-01-15T07:53:08;-1.20;99.90
16625;DHT22;8426;48.496;9.098;2024-01-15T07:58:12;-1.20;99.90
16625;DHT22;8426;48.496;9.098;2024-01-15T08:03:19;-1.10;99.90
16625;DHT22;8426;48.496;9.098;2024-01-15T08:08:23;-1.00;99.90
16625;DHT22;8426;48.496;9.098;2024-01-15T08:13:27;-1.00;99.90
16625;DHT22;8426;48.496;9.098;2024-01-15T08:18:32;-0.80;99.90
16625;DHT22;8426;48.496;9.098;2024-01-15T08:23:36;-0.60;99.90
16625;DHT22;8426;48.496;9.098;2024-01-15T08:28:39;-0.60;99.90
16625;DHT22;8426;48.496;9.098;2024-01-15T08:33:45;-0.40;99.90
16625;DHT22;8426;48.496;9.098;2024-01-15T08:38:49;-0.40;99.90
16625;DHT22;8426;48.496;9.098;2024-01-15T08:43:55;-0.40;99.90
16625;DHT22;8426;48.496;9.098;2024-01-15T08:48:59;-0.40;99.90
16625;DHT22;8426;48.496;9.098;2024-01-15T08:54:03;-0.40;99.90
16625;DHT22;8426;48.496;9.098;2024-01-15T08:59:07;-0.40;99.90
16625;DHT22;8426;48.496;9.098;2024-01-15T09:04:12;-0.30;99.90
16625;DHT22;8426;48.496;9.098;2024-01-15T09:09:17;-0.10;99.90
16625;DHT22;8426;48.496;9.098;2024-01-15T09:14:20;-0.10;99.90
16625;DHT22;8426;48.496;9.098;2024-01-15T09:19:39;0.00;99.90
16625;DHT22;8426;48.496;9.098;2024-01-15T09:24:42;0.10;99.90
16625;DHT22;8426;48.496;9.098;2024-01-15T09:29:46;0.20;99.90
16625;DHT22;8426;48.496;9.098;2024-01-15T09:34:51;0.30;99.90
16625;DHT22;8426;48.496;9.098;2024-01-15T09:39:54;0.40;99.90
16625;DHT22;8426;48.496;9.098;2024-01-15T09:44:59;0.60;99.90
16625;DHT22;8426;48.496;9.098;2024-01-15T09:50:05;0.70;99.90
16625;DHT22;8426;48.496;9.098;2024-01-15T09:55:09;0.90;99.90
16625;DHT22;8426;48.496;9.098;2024-01-15T10:00:18;1.00;99.90
16625;DHT22;8426;48.496;9.098;2024-01-15T10:05:23;1.10;99.90
16625;DHT22;8426;48.496;9.098;2024-01-15T10:10:27;1.20;99.90
16625;DHT22;8426;48.496;9.098;2024-01-15T10:15:34;1.30;99.90
16625;DHT22;8426;48.496;9.098;2024-01-15T10:20:41;1.30;99.90
16625;DHT22;8426;48.496;9.098;2024-01-15T10:25:45;1.30;99.90
16625;DHT22;8426;48.496;9.098;2024-01-15T10:30:52;1.30;99.90
16625;DHT22;8426;48.496;9.098;2024-01-15T10:35:57;1.30;99.90
16625;DHT22;8426;48.496;9.098;2024-01-15T10:41:01;1.40;99.90
16625;DHT22;8426;48.496;9.098;2024-01-15T10:46:06;1.60;99.90
16625;DHT22;8426;48.496;9.098;2024-01-15T10:51:12;1.50;99.90
16625;DHT22;8426;48.496;9.098;2024-01-15T10:56:18;1.60;99.90
16625;DHT22;8426;48.496;9.098;2024-01-15T11:01:22;1.50;99.90
16625;DHT22;8426;48.496;9.098;2024-01-15T11:06:42;1.40;99.90
16625;DHT22;8426;48.496;9.098;2024-01-15T11:11:47;1.30;99.90
16625;DHT22;8426;48.496;9.098;2024-01-15T11:16:55;1.20;99.90
16625;DHT22;8426;48.496;9.098;2024-01-15T11:22:03;1.20;99.90
16625;DHT22;8426;48.496;9.098;2024-01-15T11:27:08;1.20;99.90
16625;DHT22;8426;48.496;9.098;2024-01-15T11:32:12;1.20;99.90
16625;DHT22;8426;48.496;9.098;2024-01-15T11:37:17;1.20;99.90
16625;DHT22;8426;48.496;9.098;2024-01-15T11:42:21;1.10;99.90
16625;DHT22;8426;48.496;9.098;2024-01-15T11:48:00;0.90;99.90
16625;DHT22;8426;48.496;9.098;2024-01-15T11:53:32;0.70;99.90
16625;DHT22;8426;48.496;9.098;2024-01-15T11:58:37;0.70;99.90
16625;DHT22;8426;48.496;9.098;2024-01-15T12:03:41;0.70;99.90
16625;DHT22;8426;48.496;9.098;2024-01-15T12:08:46;0.70;99.90
16625;DHT22;8426;48.496;9.098;2024-01-15T12:13:50;0.90;99.90
16625;DHT22;8426;48.496;9.098;2024-01-15T12:18:56;1.00;99.90
16625;DHT22;8426;48.496;9.098;2024-01-15T12:24:02;1.00;99.90
16625;DHT22;8426;48.496;9.098;2024-01-15T12:29:06;0.90;99.90
16625;DHT22;8426;48.496;9.098;2024-01-15T12:34:10;0.90;99.90
16625;DHT22;8426;48.496;9.098;2024-01-15T12:39:15;0.90;99.90
16625;DHT22;8426;48.496;9.098;2024-01-15T12:44:19;0.90;99.90
16625;DHT22;8426;48.496;9.098;2024-01-15T12:49:24;1.00;99.90
16625;DHT22;8426;48.496;9.098;2024-01-15T12:54:29;1.00;99.90
16625;DHT22;8426;48.496;9.098;2024-01-15T12:59:33;0.90;99.90
16625;DHT22;8426;48.496;9.098;2024-01-15T13:04:36;0.70;99.90
16625;DHT22;8426;48.496;9.098;2024-01-15T13:09:42;0.70;99.90
16625;DHT22;8426;48.496;9.098;2024-01-15T13:14:46;0.80;99.90
16625;DHT22;8426;48.496;9.098;2024-01-15T13:19:49;0.80;99.90
16625;DHT22;8426;48.496;9.098;2024-01-15T13:24:55;0.80;99.90
16625;DHT22;8426;48.496;9.098;2024-01-15T13:29:59;0.70;99.90
16625;DHT22;8426;48.496;9.098;2024-01-15T13:35:03;0.60;99.90
16625;DHT22;8426;48.496;9.098;2024-01-15T13:40:13;0.60;99.90
16625;DHT22;8426;48.496;9.098;2024-01-15T13:45:19;0.50;99.90
16625;DHT22;8426;48.496;9.098;2024-01-15T13:50:23;0.40;99.90
16625;DHT22;8426;48.496;9.098;2024-01-15T13:55:28;0.30;99.90
16625;DHT22;8426;48.496;9.098;2024-01-15T14:00:32;0.40;99.90
16625;DHT22;8426;48.496;9.098;2024-01-15T14:05:38;0.30;99.90
16625;DHT22;8426;48.496;9.098;2024-01-15T14:10:43;0.20;99.90
16625;DHT22;8426;48.496;9.098;2024-01-15T14:15:47;0.20;99.90
16625;DHT22;8426;48.496;9.098;2024-01-15T14:20:52;0.20;99.90
16625;DHT22;8426;48.496;9.098;2024-01-15T14:25:58;0.10;99.90
16625;DHT22;8426;48.496;9.098;2024-01-15T14:31:03;0.10;99.90
16625;DHT22;8426;48.496;9.098;2024-01-15T14:36:08;0.10;99.90
16625;DHT22;8426;48.496;9.098;2024-01-15T14:41:13;0.00;99.90
16625;DHT22;8426;48.496;9.098;2024-01-15T14:46:19;0.10;99.90
16625;DHT22;8426;48.496;9.098;2024-01-15T14:51:24;0.00;99.90
16625;DHT22;8426;48.496;9.098;2024-01-15T14:56:30;-0.20;99.90
16625;DHT22;8426;48.496;9.098;2024-01-15T15:01:34;-0.10;99.90
16625;DHT22;8426;48.496;9.098;2024-01-15T15:06:38;-0.10;99.90
16625;DHT22;8426;48.496;9.098;2024-01-15T15:11:43;-0.20;99.90
16625;DHT22;8426;48.496;9.098;2024-01-15T15:16:47;-0.20;99.90
16625;DHT22;8426;48.496;9.098;2024-01-15T15:21:51;-0.30;99.90
16625;DHT22;8426;48.496;9.098;2024-01-15T15:26:56;-0.30;99.90
16625;DHT22;8426;48.496;9.098;2024-01-15T15:32:01;-0.40;99.90
16625;DHT22;8426;48.496;9.098;2024-01-15T15:37:05;-0.40;99.90
16625;DHT22;8426;48.496;9.098;2024-01-15T15:42:17;-0.50;99.90
16625;DHT22;8426;48.496;9.098;2024-01-15T15:47:20;-0.60;99.90
16625;DHT22;8426;48.496;9.098;2024-01-15T15:52:25;-0.70;99.90
16625;DHT22;8426;48.496;9.098;2024-01-15T15:57:31;-0.80;99.90
16625;DHT22;8426;48.496;9.098;2024-01-15T16:02:39;-0.70;99.90
16625;DHT22;8426;48.496;9.098;2024-01-15T16:07:57;-0.70;99.90
16625;DHT22;8426;48.496;9.098;2024-01-15T16:13:02;-0.70;99.90
16625;DHT22;8426;48.496;9.098;2024-01-15T16:18:06;-0.70;99.90
16625;DHT22;8426;48.496;9.098;2024-01-15T16:23:30;-0.70;99.90
16625;DHT22;8426;48.496;9.098;2024-01-15T16:28:56;-0.80;99.90
16625;DHT22;8426;48.496;9.098;2024-01-15T16:34:04;-0.90;99.90
16625;DHT22;8426;48.496;9.098;2024-01-15T16:39:10;-0.90;99.90
16625;DHT22;8426;48.496;9.098;2024-01-15T16:44:19;-0.90;99.90
16625;DHT22;8426;48.496;9.098;2024-01-15T16:49:23;-1.00;99.90
16625;DHT22;8426;48.496;9.098;2024-01-15T16:54:28;-1.00;99.90
16625;DHT22;8426;48.496;9.098;2024-01-15T16:59:42;-1.10;99.90
16625;DHT22;8426;48.496;9.098;2024-01-15T17:04:48;-1.10;99.90
16625;DHT22;8426;48.496;9.098;2024-01-15T17:09:52;-1.10;99.90
16625;DHT22;8426;48.496;9.098;2024-01-15T17:14:59;-1.10;99.90
16625;DHT22;8426;48.496;9.098;2024-01-15T17:20:06;-1.10;99.90
16625;DHT22;8426;48.496;9.098;2024-01-15T17:25:11;-1.10;99.90
16625;DHT22;8426;48.496;9.098;2024-01-15T17:30:23;-1.10;99.90
16625;DHT22;8426;48.496;9.098;2024-01-15T17:35:27;-1.10;99.90
16625;DHT22;8426;48.496;9.098;2024-01-15T17:40:36;-1.00;99.90
16625;DHT22;8426;48.496;9.098;2024-01-15T17:45:45;-1.00;99.90
16625;DHT22;8426;48.496;9.098;2024-01-15T17:50:49;-1.00;99.90
16625;DHT22;8426;48.496;9.098;2024-01-15T17:56:09;-1.10;99.90
16625;DHT22;8426;48.496;9.098;2024-01-15T18:01:16;-1.10;99.90
16625;DHT22;8426;48.496;9.098;2024-01-15T18:06:22;-1.10;99.90
16625;DHT22;8426;48.496;9.098;2024-01-15T18:11:29;-1.20;99.90
16625;DHT22;8426;48.496;9.098;2024-01-15T18:16:34;-1.20;99.90
16625;DHT22;8426;48.496;9.098;2024-01-15T18:21:37;-1.10;99.90
16625;DHT22;8426;48.496;9.098;2024-01-15T18:26:41;-1.20;99.90
16625;DHT22;8426;48.496;9.098;2024-01-15T18:31:47;-1.20;99.90
16625;DHT22;8426;48.496;9.098;2024-01-15T18:36:51;-1.20;99.90
16625;DHT22;8426;48.496;9.098;2024-01-15T18:41:55;-1.20;99.90
16625;DHT22;8426;48.496;9.098;2024-01-15T18:47:01;-1.30;99.90
16625;DHT22;8426;48.496;9.098;2024-01-15T18:52:05;-1.50;99.90
16625;DHT22;8426;48.496;9.098;2024-01-15T18:57:11;-1.80;99.90
16625;DHT22;8426;48.496;9.098;2024-01-15T19:02:16;-2.00;99.90
16625;DHT22;8426;48.496;9.098;2024-01-15T19:07:20;-2.10;99.90
16625;DHT22;8426;48.496;9.098;2024-01-15T19:12:24;-1.90;99.90
16625;DHT22;8426;48.496;9.098;2024-01-15T19:17:31;-1.70;99.90
16625;DHT22;8426;48.496;9.098;2024-01-15T19:22:35;-1.60;99.90
16625;DHT22;8426;48.496;9.098;2024-01-15T19:27:38;-1.50;99.90
16625;DHT22;8426;48.496;9.098;2024-01-15T19:32:47;-1.40;99.90
16625;DHT22;8426;48.496;9.098;2024-01-15T19:37:50;-1.40;99.90
16625;DHT22;8426;48.496;9.098;2024-01-15T19:42:55;-1.40;99.90
16625;DHT22;8426;48.496;9.098;2024-01-15T19:48:00;-1.50;99.90
16625;DHT22;8426;48.496;9.098;2024-01-15T19:53:06;-1.40;99.90
16625;DHT22;8426;48.496;9.098;2024-01-15T19:58:10;-1.40;99.90
16625;DHT22;8426;48.496;9.098;2024-01-15T20:03:16;-1.50;99.90
16625;DHT22;8426;48.496;9.098;2024-01-15T20:08:20;-1.50;99.90
16625;DHT22;8426;48.496;9.098;2024-01-15T20:13:24;-1.50;99.90
16625;DHT22;8426;48.496;9.098;2024-01-15T20:18:29;-1.40;99.90
16625;DHT22;8426;48.496;9.098;2024-01-15T20:23:33;-1.50;99.90
16625;DHT22;8426;48.496;9.098;2024-01-15T20:28:55;-1.50;99.90
16625;DHT22;8426;48.496;9.098;2024-01-15T20:34:00;-1.40;99.90
16625;DHT22;8426;48.496;9.098;2024-01-15T20:39:04;-1.50;99.90
16625;DHT22;8426;48.496;9.098;2024-01-15T20:44:09;-1.50;99.90
16625;DHT22;8426;48.496;9.098;2024-01-15T20:49:14;-1.40;99.90
16625;DHT22;8426;48.496;9.098;2024-01-15T20:54:18;-1.50;99.90
16625;DHT22;8426;48.496;9.098;2024-01-15T20:59:23;-1.50;99.90
16625;DHT22;8426;48.496;9.098;2024-01-15T21:04:29;-1.50;99.90
16625;DHT22;8426;48.496;9.098;2024-01-15T21:09:33;-1.60;99.90
16625;DHT22;8426;48.496;9.098;2024-01-15T21:14:38;-1.60;99.90
16625;DHT22;8426;48.496;9.098;2024-01-15T21:19:46;-1.60;99.90
16625;DHT22;8426;48.496;9.098;2024-01-15T21:24:50;-1.60;99.90
16625;DHT22;8426;48.496;9.098;2024-01-15T21:29:54;-1.60;99.90
16625;DHT22;8426;48.496;9.098;2024-01-15T21:34:59;-1.50;99.90
16625;DHT22;8426;48.496;9.098;2024-01-15T21:40:03;-1.60;99.90
16625;DHT22;8426;48.496;9.098;2024-01-15T21:45:09;-1.70;99.90
16625;DHT22;8426;48.496;9.098;2024-01-15T21:50:16;-1.70;99.90
16625;DHT22;8426;48.496;9.098;2024-01-15T21:55:20;-1.70;99.90
16625;DHT22;8426;48.496;9.098;2024-01-15T22:00:24;-1.70;99.90
16625;DHT22;8426;48.496;9.098;2024-01-15T22:05:29;-1.70;99.90
16625;DHT22;8426;48.496;9.098;2024-01-15T22:10:32;-1.70;99.90
16625;DHT22;8426;48.496;9.098;2024-01-15T22:15:36;-1.70;99.90
16625;DHT22;8426;48.496;9.098;2024-01-15T22:20:41;-1.70;99.90
16625;DHT22;8426;48.496;9.098;2024-01-15T22:25:45;-1.80;99.90
16625;DHT22;8426;48.496;9.098;2024-01-15T22:30:50;-1.80;99.90
16625;DHT22;8426;48.496;9.098;2024-01-15T22:35:57;-1.80;99.90
16625;DHT22;8426;48.496;9.098;2024-01-15T22:41:01;-1.70;99.90
16625;DHT22;8426;48.496;9.098;2024-01-15T22:46:05;-1.70;99.90
16625;DHT22;8426;48.496;9.098;2024-01-15T22:51:10;-1.70;99.90
16625;DHT22;8426;48.496;9.098;2024-01-15T22:56:17;-1.80;99.90
16625;DHT22;8426;48.496;9.098;2024-01-15T23:01:21;-1.80;99.90
16625;DHT22;8426;48.496;9.098;2024-01-15T23:06:27;-1.80;99.90
16625;DHT22;8426;48.496;9.098;2024-01-15T23:11:30;-1.80;99.90
16625;DHT22;8426;48.496;9.098;2024-01-15T23:16:34;-1.80;99.90
16625;DHT22;8426;48.496;9.098;2024-01-15T23:21:42;-1.80;99.90
16625;DHT22;8426;48.496;9.098;2024-01-15T23:26:46;-1.80;99.90
16625;DHT22;8426;48.496;9.098;2024-01-15T23:31:50;-1.80;99.90
16625;DHT22;8426;48.496;9.098;2024-01-15T23:36:55;-1.80;99.90
16625;DHT22;8426;48.496;9.098;2024-01-15T23:42:00;-1.80;99.90
16625;DHT22;8426;48.496;9.098;2024-01-15T23:47:05;-1.80;99.90
16625;DHT22;8426;48.496;9.098;2024-01-15T23:52:23;-1.80;99.90
16625;DHT22;8426;48.496;9.098;2024-01-15T23:57:27;-1.80;99.90
